Terminal Aerodrome Forecast
Issued by NWS Mt. Holly, NJ

Home | Current Version | Previous Version | Text Only | Print | Product List | Glossary On
Versions: 1 2 3 4 5 6 7 8 9 10 11 12 13 14 15 16 17 18 19 20 21 22
524
FTUS41 KPHI 270526
TAFACY
TAF
KACY 270526Z 2706/2806 00000KT P6SM SKC
     FM271000 19005KT P6SM SCT250
     FM271700 21012KT P6SM OVC100
     FM272300 18003KT P6SM BKN080=

USA.gov is the U.S. government's official web portal to all federal, state and local government web resources and services.